Time;durP1;ratioP1;P1;durP2;ratioP2;P2;SDS_P1;SDS_P2;PMS_P1;PMS_P2;Temp;Humidity;BMP_temperature;BMP_pressure;BME280_temperature;BME280_humidity;BME280_pressure;Samples;Min_cycle;Max_cycle;Signal;HPM_P1;HPM_P2
2022/01/27 00:01:37;;;;;;;;;;;22.50;50.20;;;;;;5100402;28;1017;-48
2022/01/27 00:04:12;;;;;;;;;;;22.50;50.10;;;;;;5100139;28;1160;-47
2022/01/27 00:06:40;;;;;;;;;;;22.50;50.10;;;;;;5100519;28;999;-47
2022/01/27 00:09:16;;;;;;;;;;;22.40;50.10;;;;;;5100623;28;985;-47
2022/01/27 00:11:46;;;;;;;;;;;22.40;50.10;;;;;;5099284;28;1883;-47
2022/01/27 00:14:14;;;;;;;;;;;22.40;50.10;;;;;;5099520;28;1004;-46
2022/01/27 00:16:43;;;;;;;;;;;22.40;50.20;;;;;;5100010;28;964;-49
2022/01/27 00:19:12;;;;;;;;;;;22.40;50.20;;;;;;5099809;28;1021;-47
2022/01/27 00:21:38;;;;;;;;;;;22.40;50.00;;;;;;5099828;28;888;-46
2022/01/27 00:24:06;;;;;;;;;;;22.40;49.90;;;;;;5100595;28;1873;-48
2022/01/27 00:26:32;;;;;;;;;;;22.30;50.00;;;;;;5099950;28;992;-47
2022/01/27 00:28:59;;;;;;;;;;;22.30;50.10;;;;;;5099909;28;1035;-44
2022/01/27 00:31:26;;;;;;;;;;;22.30;50.10;;;;;;5099661;28;1988;-44
2022/01/27 00:33:53;;;;;;;;;;;22.30;50.10;;;;;;5098574;28;988;-44
2022/01/27 00:36:21;;;;;;;;;;;22.30;50.00;;;;;;5099417;28;1018;-45
2022/01/27 00:38:50;;;;;;;;;;;22.30;49.90;;;;;;5099347;28;1027;-45
2022/01/27 00:41:19;;;;;;;;;;;22.30;50.00;;;;;;5098992;28;967;-44
2022/01/27 00:43:47;;;;;;;;;;;22.30;49.90;;;;;;5099312;28;1012;-44
2022/01/27 00:46:16;;;;;;;;;;;22.30;49.90;;;;;;5099559;28;996;-45
2022/01/27 00:48:43;;;;;;;;;;;22.30;50.10;;;;;;5099161;28;1071;-44
2022/01/27 00:51:12;;;;;;;;;;;22.20;50.00;;;;;;5098497;28;1111;-44
2022/01/27 00:53:46;;;;;;;;;;;22.20;50.10;;;;;;5098869;28;1988;-44
2022/01/27 00:56:21;;;;;;;;;;;22.20;50.00;;;;;;5099144;28;900;-43
2022/01/27 00:58:57;;;;;;;;;;;22.20;49.90;;;;;;5099433;28;949;-45
2022/01/27 01:01:29;;;;;;;;;;;22.20;49.90;;;;;;5098891;28;976;-44
2022/01/27 01:04:00;;;;;;;;;;;22.20;50.10;;;;;;5099168;28;999;-44
2022/01/27 01:06:36;;;;;;;;;;;22.20;50.10;;;;;;5098684;28;996;-44
2022/01/27 01:14:52;;;;;;;;;;;22.10;50.20;;;;;;5098801;28;900;-43
2022/01/27 01:17:42;;;;;;;;;;;22.10;50.40;;;;;;5098895;28;991;-43
2022/01/27 01:20:29;;;;;;;;;;;22.10;50.40;;;;;;5099057;28;984;-45
2022/01/27 01:31:29;;;;;;;;;;;22.10;50.50;;;;;;5098250;28;699;-45
2022/01/27 01:34:11;;;;;;;;;;;22.10;50.60;;;;;;5098543;28;1001;-44
2022/01/27 01:36:46;;;;;;;;;;;22.00;50.50;;;;;;5098472;28;920;-44
2022/01/27 01:39:13;;;;;;;;;;;22.00;50.50;;;;;;5098076;28;929;-45
2022/01/27 01:41:41;;;;;;;;;;;22.00;50.60;;;;;;5098138;28;969;-45
2022/01/27 01:44:10;;;;;;;;;;;21.90;50.60;;;;;;5098448;28;985;-43
2022/01/27 01:46:36;;;;;;;;;;;22.00;50.80;;;;;;5098015;28;932;-44
2022/01/27 01:49:04;;;;;;;;;;;21.90;50.70;;;;;;5098453;28;988;-44
2022/01/27 01:51:32;;;;;;;;;;;21.90;50.80;;;;;;5098402;28;1901;-45
2022/01/27 01:53:59;;;;;;;;;;;21.90;50.80;;;;;;5098383;28;944;-44
2022/01/27 01:56:26;;;;;;;;;;;21.80;50.80;;;;;;5098371;28;989;-45
2022/01/27 01:58:54;;;;;;;;;;;21.80;50.80;;;;;;5098215;28;1005;-45
2022/01/27 02:01:21;;;;;;;;;;;21.90;50.90;;;;;;5098223;28;947;-45
2022/01/27 02:03:47;;;;;;;;;;;21.80;50.90;;;;;;5098190;28;999;-43
2022/01/27 02:06:20;;;;;;;;;;;21.90;50.90;;;;;;5097677;28;996;-45
2022/01/27 02:09:04;;;;;;;;;;;21.80;50.90;;;;;;5097655;28;996;-45
2022/01/27 02:19:45;;;;;;;;;;;21.80;51.10;;;;;;5096777;28;879;-44
2022/01/27 02:22:13;;;;;;;;;;;21.80;51.00;;;;;;5097168;28;936;-44
2022/01/27 02:24:40;;;;;;;;;;;21.80;51.00;;;;;;5097339;28;892;-45
2022/01/27 02:27:06;;;;;;;;;;;21.80;51.00;;;;;;5096931;28;932;-45
2022/01/27 02:29:33;;;;;;;;;;;21.80;51.10;;;;;;5096911;28;1003;-44
2022/01/27 02:32:00;;;;;;;;;;;21.80;51.00;;;;;;5097188;28;1902;-45
2022/01/27 02:34:27;;;;;;;;;;;21.80;51.10;;;;;;5097469;28;1165;-44
2022/01/27 02:36:54;;;;;;;;;;;21.80;51.10;;;;;;5097111;28;936;-45
2022/01/27 02:39:22;;;;;;;;;;;21.70;51.00;;;;;;5097360;28;1015;-44
2022/01/27 02:41:52;;;;;;;;;;;21.70;50.90;;;;;;5096661;28;964;-44
2022/01/27 02:44:20;;;;;;;;;;;21.70;50.90;;;;;;5095547;28;1018;-44
2022/01/27 02:46:50;;;;;;;;;;;21.70;51.00;;;;;;5097637;28;1008;-44
2022/01/27 02:49:17;;;;;;;;;;;21.70;51.10;;;;;;5097527;28;1174;-45
2022/01/27 02:51:44;;;;;;;;;;;21.60;51.10;;;;;;5097269;28;1023;-44
2022/01/27 02:54:11;;;;;;;;;;;21.60;51.10;;;;;;5097389;28;1972;-44
2022/01/27 02:56:44;;;;;;;;;;;21.60;51.30;;;;;;5097522;28;997;-44
2022/01/27 02:59:11;;;;;;;;;;;21.60;51.20;;;;;;5100341;28;1005;-44
2022/01/27 03:01:38;;;;;;;;;;;21.60;51.30;;;;;;5101401;28;917;-44
2022/01/27 03:04:05;;;;;;;;;;;21.50;51.40;;;;;;5100877;28;945;-44
2022/01/27 03:06:31;;;;;;;;;;;21.50;51.40;;;;;;5101292;28;980;-45
2022/01/27 03:12:13;;;;;;;;;;;21.50;51.60;;;;;;5101262;28;1975;-43
2022/01/27 03:14:41;;;;;;;;;;;21.40;51.50;;;;;;5101324;28;940;-45
2022/01/27 03:17:08;;;;;;;;;;;21.40;51.70;;;;;;5101662;28;999;-45
2022/01/27 03:19:36;;;;;;;;;;;21.40;51.80;;;;;;5100843;28;1000;-44
2022/01/27 03:22:04;;;;;;;;;;;21.40;51.80;;;;;;5100770;28;1019;-44
2022/01/27 03:24:31;;;;;;;;;;;21.30;51.80;;;;;;5101133;28;1009;-45
2022/01/27 03:26:58;;;;;;;;;;;21.30;51.80;;;;;;5101065;28;971;-44
2022/01/27 03:29:26;;;;;;;;;;;21.30;51.90;;;;;;5100078;28;1063;-44
2022/01/27 03:31:54;;;;;;;;;;;21.30;51.90;;;;;;5100374;28;1038;-44
2022/01/27 03:34:20;;;;;;;;;;;21.30;52.00;;;;;;5100800;28;1975;-45
2022/01/27 03:36:47;;;;;;;;;;;21.30;52.00;;;;;;5100491;28;1016;-44
2022/01/27 03:39:17;;;;;;;;;;;21.20;52.00;;;;;;5100840;28;1023;-45
2022/01/27 03:41:49;;;;;;;;;;;21.20;52.00;;;;;;5101077;28;942;-43
2022/01/27 03:44:16;;;;;;;;;;;21.20;52.00;;;;;;5100657;28;933;-45
2022/01/27 03:46:44;;;;;;;;;;;21.20;52.10;;;;;;5100607;28;1447;-44
2022/01/27 03:49:10;;;;;;;;;;;21.20;52.10;;;;;;5100863;28;1274;-44
2022/01/27 03:51:37;;;;;;;;;;;21.20;52.20;;;;;;5100312;28;893;-44
2022/01/27 03:54:04;;;;;;;;;;;21.20;52.30;;;;;;5100486;28;1898;-43
2022/01/27 03:56:31;;;;;;;;;;;21.20;52.20;;;;;;5100490;28;1030;-44
2022/01/27 03:58:57;;;;;;;;;;;21.20;52.20;;;;;;5100359;28;937;-43
2022/01/27 04:01:24;;;;;;;;;;;21.20;52.20;;;;;;5100567;28;949;-45
2022/01/27 04:03:55;;;;;;;;;;;21.10;52.20;;;;;;5099844;28;924;-45
2022/01/27 04:06:31;;;;;;;;;;;21.10;52.40;;;;;;5099905;28;964;-44
2022/01/27 04:08:58;;;;;;;;;;;21.10;52.30;;;;;;5100134;28;1005;-44
2022/01/27 04:11:25;;;;;;;;;;;21.10;53.50;;;;;;5100475;28;1017;-44
2022/01/27 04:13:52;;;;;;;;;;;21.10;52.40;;;;;;5100163;28;1894;-44
2022/01/27 04:16:19;;;;;;;;;;;21.10;52.40;;;;;;5100111;28;980;-45
2022/01/27 04:18:45;;;;;;;;;;;21.10;52.30;;;;;;5099922;28;1007;-45
2022/01/27 04:21:14;;;;;;;;;;;21.10;52.30;;;;;;5099769;28;1074;-44
2022/01/27 04:23:41;;;;;;;;;;;21.10;52.40;;;;;;5099989;28;1011;-44
2022/01/27 04:26:08;;;;;;;;;;;21.10;52.40;;;;;;5099910;28;993;-44
2022/01/27 04:28:37;;;;;;;;;;;21.10;52.60;;;;;;5100255;28;976;-44
2022/01/27 04:31:07;;;;;;;;;;;21.10;52.50;;;;;;5099399;28;964;-45
2022/01/27 04:33:35;;;;;;;;;;;21.10;52.40;;;;;;5099389;28;1984;-44
2022/01/27 04:36:07;;;;;;;;;;;21.10;52.50;;;;;;5100002;28;983;-43
2022/01/27 04:38:41;;;;;;;;;;;21.00;52.50;;;;;;5099484;28;1011;-45
2022/01/27 04:41:14;;;;;;;;;;;21.10;52.60;;;;;;5099469;28;993;-43
2022/01/27 04:43:47;;;;;;;;;;;21.20;52.60;;;;;;5099231;28;1000;-45
2022/01/27 04:46:23;;;;;;;;;;;21.30;52.50;;;;;;5099394;28;959;-44
2022/01/27 04:48:53;;;;;;;;;;;21.30;52.20;;;;;;5099176;28;1221;-44
2022/01/27 04:51:22;;;;;;;;;;;21.40;52.10;;;;;;5099250;28;1016;-44
2022/01/27 04:53:56;;;;;;;;;;;21.60;52.00;;;;;;5097753;28;1902;-43
2022/01/27 04:56:23;;;;;;;;;;;21.60;51.80;;;;;;5098752;28;1019;-44
2022/01/27 04:58:54;;;;;;;;;;;21.70;51.80;;;;;;5098590;28;1042;-45
2022/01/27 05:01:28;;;;;;;;;;;21.70;51.90;;;;;;5097164;28;1015;-43
2022/01/27 05:04:00;;;;;;;;;;;21.70;51.90;;;;;;5097920;28;920;-43
2022/01/27 05:06:26;;;;;;;;;;;21.70;53.10;;;;;;5097427;28;1007;-43
2022/01/27 05:08:55;;;;;;;;;;;21.70;52.00;;;;;;5097787;28;960;-43
2022/01/27 05:11:26;;;;;;;;;;;21.70;52.00;;;;;;5097441;28;992;-43
2022/01/27 05:13:57;;;;;;;;;;;21.70;52.10;;;;;;5097878;28;1975;-44
2022/01/27 05:16:23;;;;;;;;;;;21.70;52.10;;;;;;5097005;28;1012;-45
2022/01/27 05:18:50;;;;;;;;;;;21.70;52.00;;;;;;5097684;28;948;-43
2022/01/27 05:21:17;;;;;;;;;;;21.70;52.10;;;;;;5097202;28;888;-44
2022/01/27 05:23:43;;;;;;;;;;;21.70;52.00;;;;;;5097387;28;1003;-44
2022/01/27 05:26:12;;;;;;;;;;;21.80;52.00;;;;;;5097523;28;951;-43
2022/01/27 05:28:38;;;;;;;;;;;21.80;51.90;;;;;;5097218;28;941;-43
2022/01/27 05:31:06;;;;;;;;;;;21.80;51.90;;;;;;5098015;28;1005;-44
2022/01/27 05:33:32;;;;;;;;;;;21.80;52.00;;;;;;5097080;28;1905;-44
2022/01/27 05:35:59;;;;;;;;;;;21.80;52.00;;;;;;5097167;28;976;-44
2022/01/27 05:38:26;;;;;;;;;;;21.80;52.00;;;;;;5097649;28;960;-44
2022/01/27 05:40:52;;;;;;;;;;;21.80;52.00;;;;;;5096879;28;1001;-44
2022/01/27 05:43:20;;;;;;;;;;;21.80;51.90;;;;;;5096458;28;947;-43
2022/01/27 05:45:47;;;;;;;;;;;21.80;52.00;;;;;;5097287;28;995;-45
2022/01/27 05:48:14;;;;;;;;;;;21.80;52.00;;;;;;5096224;28;897;-44
2022/01/27 05:50:41;;;;;;;;;;;21.70;52.20;;;;;;5097851;28;1204;-44
2022/01/27 05:53:07;;;;;;;;;;;21.70;52.20;;;;;;5096792;28;1930;-43
2022/01/27 05:55:34;;;;;;;;;;;21.70;52.20;;;;;;5097099;28;981;-44
2022/01/27 05:58:01;;;;;;;;;;;21.80;52.10;;;;;;5097298;28;990;-43
2022/01/27 06:00:29;;;;;;;;;;;21.80;52.10;;;;;;5096757;28;873;-45
2022/01/27 06:02:56;;;;;;;;;;;21.70;52.20;;;;;;5097465;28;984;-43
2022/01/27 06:05:23;;;;;;;;;;;21.70;52.20;;;;;;5096481;28;920;-43
2022/01/27 06:07:50;;;;;;;;;;;21.80;52.10;;;;;;5095575;28;1006;-44
2022/01/27 06:10:17;;;;;;;;;;;21.80;52.00;;;;;;5096114;28;999;-43
2022/01/27 06:12:48;;;;;;;;;;;21.70;52.10;;;;;;5096986;28;1030;-43
2022/01/27 06:15:15;;;;;;;;;;;21.80;52.10;;;;;;5096404;28;2134;-49
2022/01/27 06:17:43;;;;;;;;;;;21.70;52.10;;;;;;5096284;28;1009;-44
2022/01/27 06:20:10;;;;;;;;;;;21.80;52.00;;;;;;5094224;28;932;-43
2022/01/27 06:22:37;;;;;;;;;;;21.70;52.10;;;;;;5096001;28;1017;-44
2022/01/27 06:25:04;;;;;;;;;;;21.70;52.30;;;;;;5093773;28;940;-45
2022/01/27 06:27:31;;;;;;;;;;;21.70;52.40;;;;;;5095120;28;1085;-44
2022/01/27 06:29:58;;;;;;;;;;;21.80;52.10;;;;;;5095281;28;924;-43
2022/01/27 06:32:25;;;;;;;;;;;21.80;52.30;;;;;;5095567;28;1029;-43
2022/01/27 06:34:53;;;;;;;;;;;21.70;52.30;;;;;;5098646;28;1893;-43
2022/01/27 06:37:20;;;;;;;;;;;21.70;52.30;;;;;;5099745;28;1007;-46
2022/01/27 06:39:46;;;;;;;;;;;21.70;52.40;;;;;;5100462;28;893;-47
2022/01/27 06:42:13;;;;;;;;;;;21.70;52.50;;;;;;5099682;28;948;-47
2022/01/27 06:44:40;;;;;;;;;;;21.70;52.40;;;;;;5098994;28;1115;-47
2022/01/27 06:47:07;;;;;;;;;;;21.70;52.40;;;;;;5099382;28;1029;-47
2022/01/27 06:49:33;;;;;;;;;;;21.80;52.20;;;;;;5098537;28;1043;-47
2022/01/27 06:52:02;;;;;;;;;;;21.70;52.30;;;;;;5098152;28;1000;-47
2022/01/27 06:54:29;;;;;;;;;;;21.80;52.30;;;;;;5100428;28;1905;-47
2022/01/27 06:56:55;;;;;;;;;;;21.70;52.40;;;;;;5100796;28;1046;-46
2022/01/27 06:59:22;;;;;;;;;;;21.70;52.50;;;;;;5099153;28;988;-38
2022/01/27 07:01:49;;;;;;;;;;;21.80;52.60;;;;;;5098599;28;995;-39
2022/01/27 07:04:16;;;;;;;;;;;21.80;53.60;;;;;;5099217;28;1034;-39
2022/01/27 07:06:43;;;;;;;;;;;21.80;52.30;;;;;;5098081;28;977;-39
2022/01/27 07:09:11;;;;;;;;;;;21.80;52.70;;;;;;5099748;28;1008;-39
2022/01/27 07:11:37;;;;;;;;;;;21.70;52.60;;;;;;5099852;28;928;-40
2022/01/27 07:14:04;;;;;;;;;;;21.70;52.70;;;;;;5099695;28;1981;-39
2022/01/27 07:16:33;;;;;;;;;;;21.70;52.60;;;;;;5099024;28;1088;-39
2022/01/27 07:19:00;;;;;;;;;;;21.70;52.70;;;;;;5099337;28;944;-39
2022/01/27 07:21:26;;;;;;;;;;;21.70;52.80;;;;;;5100203;28;919;-39
2022/01/27 07:23:53;;;;;;;;;;;21.70;52.80;;;;;;5099657;28;999;-39
2022/01/27 07:26:25;;;;;;;;;;;21.70;52.70;;;;;;5098775;28;1021;-39
2022/01/27 07:28:52;;;;;;;;;;;21.60;52.70;;;;;;5099513;28;932;-39
2022/01/27 07:31:19;;;;;;;;;;;21.60;52.60;;;;;;5099166;28;928;-39
2022/01/27 07:33:47;;;;;;;;;;;21.60;52.60;;;;;;5099621;28;1977;-39
2022/01/27 07:36:14;;;;;;;;;;;21.60;52.50;;;;;;5098575;28;960;-38
2022/01/27 07:38:41;;;;;;;;;;;21.60;52.60;;;;;;5098398;28;1186;-39
2022/01/27 07:41:07;;;;;;;;;;;21.60;52.50;;;;;;5097795;28;952;-37
2022/01/27 07:43:36;;;;;;;;;;;21.60;52.50;;;;;;5098285;28;1139;-39
2022/01/27 07:46:03;;;;;;;;;;;21.60;52.60;;;;;;5098494;28;1051;-40
2022/01/27 07:48:30;;;;;;;;;;;21.60;52.60;;;;;;5098138;28;1003;-39
2022/01/27 07:50:57;;;;;;;;;;;21.50;52.50;;;;;;5098355;28;2790;-39
2022/01/27 07:53:24;;;;;;;;;;;21.60;52.60;;;;;;5098732;28;1976;-39
2022/01/27 07:55:50;;;;;;;;;;;21.50;52.50;;;;;;5098988;28;940;-39
2022/01/27 07:58:17;;;;;;;;;;;21.50;52.40;;;;;;5098742;28;941;-39
2022/01/27 08:00:45;;;;;;;;;;;21.50;52.50;;;;;;5099001;28;1018;-40
2022/01/27 08:03:12;;;;;;;;;;;21.50;52.40;;;;;;5098786;28;967;-39
2022/01/27 08:05:39;;;;;;;;;;;21.50;52.50;;;;;;5097604;28;904;-39
2022/01/27 08:08:06;;;;;;;;;;;21.50;52.40;;;;;;5098581;28;973;-39
2022/01/27 08:10:37;;;;;;;;;;;21.50;52.40;;;;;;5097327;28;992;-39
2022/01/27 08:13:04;;;;;;;;;;;21.50;52.50;;;;;;5098028;28;986;-39
2022/01/27 08:15:31;;;;;;;;;;;21.50;52.30;;;;;;5097762;28;1976;-39
2022/01/27 08:17:59;;;;;;;;;;;21.50;52.30;;;;;;5096636;28;872;-38
2022/01/27 08:20:26;;;;;;;;;;;21.50;52.30;;;;;;5096029;28;1006;-39
2022/01/27 08:22:54;;;;;;;;;;;21.50;52.30;;;;;;5096799;28;1009;-39
2022/01/27 08:25:22;;;;;;;;;;;21.50;52.20;;;;;;5094590;28;1012;-39
2022/01/27 08:27:50;;;;;;;;;;;21.40;52.20;;;;;;5095851;28;959;-42
2022/01/27 08:30:19;;;;;;;;;;;21.40;52.20;;;;;;5096234;28;924;-39
2022/01/27 08:32:48;;;;;;;;;;;21.40;52.20;;;;;;5096732;28;984;-40
2022/01/27 08:35:17;;;;;;;;;;;21.40;52.20;;;;;;5096460;28;1914;-41
2022/01/27 08:37:44;;;;;;;;;;;21.40;52.10;;;;;;5094668;28;1865;-40
2022/01/27 08:40:11;;;;;;;;;;;21.40;52.10;;;;;;5095033;28;929;-40
2022/01/27 08:42:40;;;;;;;;;;;21.40;52.10;;;;;;5093683;28;972;-39
2022/01/27 08:45:08;;;;;;;;;;;21.40;52.00;;;;;;5093695;28;1003;-39
2022/01/27 08:47:35;;;;;;;;;;;21.40;52.00;;;;;;5094222;28;900;-39
2022/01/27 08:50:02;;;;;;;;;;;21.30;53.00;;;;;;5094607;28;1108;-39
2022/01/27 08:52:30;;;;;;;;;;;21.30;51.90;;;;;;5092234;28;874;-40
2022/01/27 08:54:57;;;;;;;;;;;21.30;51.80;;;;;;5094374;28;1959;-37
2022/01/27 08:57:24;;;;;;;;;;;21.30;51.90;;;;;;5095434;28;996;-39
2022/01/27 08:59:52;;;;;;;;;;;21.40;52.00;;;;;;5094631;28;973;-39
2022/01/27 09:02:19;;;;;;;;;;;21.30;51.90;;;;;;5095026;28;1002;-39
2022/01/27 09:04:46;;;;;;;;;;;21.30;51.90;;;;;;5094695;28;936;-39
2022/01/27 09:07:15;;;;;;;;;;;21.30;52.00;;;;;;5093102;28;969;-38
2022/01/27 09:09:43;;;;;;;;;;;21.30;52.00;;;;;;5094648;28;984;-40
2022/01/27 09:12:10;;;;;;;;;;;21.30;52.00;;;;;;5094067;28;1013;-40
2022/01/27 09:14:39;;;;;;;;;;;21.30;52.00;;;;;;5095173;28;1981;-40
2022/01/27 09:17:06;;;;;;;;;;;21.20;51.90;;;;;;5094682;28;1015;-38
2022/01/27 09:19:37;;;;;;;;;;;21.30;52.00;;;;;;5096647;28;935;-38
2022/01/27 09:22:07;;;;;;;;;;;21.20;51.80;;;;;;5096397;28;1032;-38
2022/01/27 09:24:39;;;;;;;;;;;21.20;51.90;;;;;;5096710;28;886;-37
2022/01/27 09:27:07;;;;;;;;;;;21.20;51.80;;;;;;5096895;28;998;-40
2022/01/27 09:29:34;;;;;;;;;;;21.20;51.80;;;;;;5096829;28;944;-38
2022/01/27 09:32:02;;;;;;;;;;;21.20;51.90;;;;;;5096147;28;1130;-39
2022/01/27 09:34:29;;;;;;;;;;;21.20;51.80;;;;;;5096295;28;1918;-39
2022/01/27 09:36:57;;;;;;;;;;;21.20;51.90;;;;;;5097705;28;995;-38
2022/01/27 09:39:24;;;;;;;;;;;21.20;51.80;;;;;;5096675;28;984;-39
2022/01/27 09:41:54;;;;;;;;;;;21.20;51.80;;;;;;5096363;28;1004;-37
2022/01/27 09:44:24;;;;;;;;;;;21.20;51.80;;;;;;5096668;28;900;-39
2022/01/27 09:46:52;;;;;;;;;;;21.20;51.90;;;;;;5096761;28;990;-39
2022/01/27 09:49:29;;;;;;;;;;;21.10;51.90;;;;;;5096476;28;1025;-38
2022/01/27 09:51:57;;;;;;;;;;;21.10;51.80;;;;;;5095850;28;1029;-39
2022/01/27 09:54:23;;;;;;;;;;;21.10;51.80;;;;;;5097397;28;1894;-38
2022/01/27 09:56:52;;;;;;;;;;;21.10;51.70;;;;;;5096123;28;927;-39
2022/01/27 09:59:18;;;;;;;;;;;21.10;51.70;;;;;;5095767;28;1020;-39
2022/01/27 10:02:01;;;;;;;;;;;21.10;51.80;;;;;;5096660;28;1004;-37
2022/01/27 10:04:41;;;;;;;;;;;21.10;51.90;;;;;;5096114;28;928;-37
2022/01/27 10:07:08;;;;;;;;;;;21.10;51.90;;;;;;5097954;28;1094;-39
2022/01/27 10:09:34;;;;;;;;;;;21.10;51.90;;;;;;5100120;28;993;-36
2022/01/27 10:12:02;;;;;;;;;;;21.10;51.80;;;;;;5100279;28;951;-38
2022/01/27 10:14:32;;;;;;;;;;;21.10;51.80;;;;;;5100081;28;1906;-39
2022/01/27 10:17:02;;;;;;;;;;;21.10;51.70;;;;;;5100768;28;998;-40
2022/01/27 10:19:29;;;;;;;;;;;21.10;51.70;;;;;;5100017;28;861;-38
2022/01/27 10:21:59;;;;;;;;;;;21.00;51.80;;;;;;5100070;28;1001;-40
2022/01/27 10:24:28;;;;;;;;;;;21.10;51.80;;;;;;5099358;28;927;-38
2022/01/27 10:27:17;;;;;;;;;;;21.10;51.70;;;;;;5098762;28;1012;-39
2022/01/27 10:30:01;;;;;;;;;;;21.10;51.60;;;;;;5099039;28;987;-38
2022/01/27 10:32:38;;;;;;;;;;;21.10;51.70;;;;;;5097360;28;1003;-39
2022/01/27 10:35:05;;;;;;;;;;;21.00;51.70;;;;;;5099670;28;1906;-38
2022/01/27 10:37:51;;;;;;;;;;;21.00;51.70;;;;;;5100695;28;927;-39
2022/01/27 10:40:20;;;;;;;;;;;21.00;51.60;;;;;;5099824;28;1032;-37
2022/01/27 10:42:58;;;;;;;;;;;21.00;51.70;;;;;;5099419;28;1010;-40
2022/01/27 10:45:24;;;;;;;;;;;21.00;51.80;;;;;;5098485;28;945;-40
2022/01/27 10:47:54;;;;;;;;;;;21.00;51.80;;;;;;5100408;28;952;-40
2022/01/27 10:50:22;;;;;;;;;;;21.00;51.70;;;;;;5099049;28;1019;-40
2022/01/27 10:52:50;;;;;;;;;;;21.00;51.70;;;;;;5099402;28;1033;-39
2022/01/27 10:55:19;;;;;;;;;;;21.00;51.60;;;;;;5099759;28;1913;-39
2022/01/27 10:57:50;;;;;;;;;;;21.00;51.60;;;;;;5099497;28;972;-38
2022/01/27 11:00:18;;;;;;;;;;;21.00;52.80;;;;;;5099804;28;980;-40
2022/01/27 11:02:48;;;;;;;;;;;21.00;51.70;;;;;;5099580;28;1004;-41
2022/01/27 11:05:20;;;;;;;;;;;21.00;51.70;;;;;;5099426;28;1469;-38
2022/01/27 11:07:47;;;;;;;;;;;21.00;51.70;;;;;;5098768;28;987;-39
2022/01/27 11:10:15;;;;;;;;;;;21.00;51.80;;;;;;5099665;28;937;-40
2022/01/27 11:12:43;;;;;;;;;;;21.00;51.80;;;;;;5098772;28;935;-40
2022/01/27 11:15:10;;;;;;;;;;;21.00;51.60;;;;;;5096989;28;1993;-39
2022/01/27 11:17:39;;;;;;;;;;;21.00;51.60;;;;;;5098195;28;1001;-40
2022/01/27 11:20:25;;;;;;;;;;;21.00;51.60;;;;;;5098875;28;991;-39
2022/01/27 11:23:34;;;;;;;;;;;21.00;51.70;;;;;;5099315;28;1052;-38
2022/01/27 11:25:59;;;;;;;;;;;20.90;51.60;;;;;;5098063;28;1154;-39
2022/01/27 11:28:26;;;;;;;;;;;21.00;51.60;;;;;;5098685;28;842;-38
2022/01/27 11:31:01;;;;;;;;;;;20.90;51.70;;;;;;5098206;28;980;-38
2022/01/27 11:33:33;;;;;;;;;;;21.00;51.80;;;;;;5099321;28;944;-40
2022/01/27 11:36:06;;;;;;;;;;;20.90;51.80;;;;;;5098248;28;1902;-39
2022/01/27 11:38:34;;;;;;;;;;;20.90;51.70;;;;;;5098815;28;951;-39
2022/01/27 11:41:01;;;;;;;;;;;20.90;51.80;;;;;;5099057;28;1008;-37
2022/01/27 11:43:33;;;;;;;;;;;20.90;51.70;;;;;;5098849;28;968;-40
2022/01/27 11:46:12;;;;;;;;;;;20.90;51.70;;;;;;5098444;28;1043;-38
2022/01/27 11:48:39;;;;;;;;;;;20.90;51.70;;;;;;5098926;28;1043;-39
2022/01/27 11:51:12;;;;;;;;;;;20.90;51.70;;;;;;5098299;28;1307;-40
2022/01/27 11:53:41;;;;;;;;;;;20.90;51.70;;;;;;5098412;28;1004;-39
2022/01/27 11:56:10;;;;;;;;;;;20.90;51.70;;;;;;5096095;28;1898;-40
2022/01/27 11:58:44;;;;;;;;;;;20.90;51.70;;;;;;5097049;28;947;-40
2022/01/27 12:01:16;;;;;;;;;;;20.90;51.70;;;;;;5097705;28;928;-38
2022/01/27 12:03:58;;;;;;;;;;;20.90;51.70;;;;;;5097002;28;960;-39
2022/01/27 12:06:25;;;;;;;;;;;20.90;51.70;;;;;;5094938;28;1803;-39
2022/01/27 12:09:13;;;;;;;;;;;20.90;51.70;;;;;;5096101;28;933;-39
2022/01/27 12:11:45;;;;;;;;;;;20.90;51.60;;;;;;5097520;28;1391;-39
2022/01/27 12:14:14;;;;;;;;;;;20.90;51.70;;;;;;5096279;28;965;-39
2022/01/27 12:16:56;;;;;;;;;;;20.90;51.70;;;;;;5096875;28;1898;-39
2022/01/27 12:19:23;;;;;;;;;;;20.80;51.70;;;;;;5095836;28;924;-39
2022/01/27 12:22:00;;;;;;;;;;;20.90;51.70;;;;;;5097636;28;975;-39
2022/01/27 12:24:28;;;;;;;;;;;20.90;51.80;;;;;;5097317;28;1008;-39
2022/01/27 12:26:56;;;;;;;;;;;20.80;51.70;;;;;;5096015;28;931;-39
2022/01/27 12:29:27;;;;;;;;;;;20.80;51.80;;;;;;5096161;28;943;-39
2022/01/27 12:31:55;;;;;;;;;;;20.80;51.70;;;;;;5096764;28;989;-39
2022/01/27 12:34:22;;;;;;;;;;;20.80;51.70;;;;;;5096738;28;956;-39
2022/01/27 12:36:56;;;;;;;;;;;20.80;51.70;;;;;;5096156;28;1977;-39
2022/01/27 12:39:23;;;;;;;;;;;20.80;51.70;;;;;;5096925;28;968;-39
2022/01/27 12:41:53;;;;;;;;;;;20.80;51.80;;;;;;5096726;28;998;-39
2022/01/27 12:44:20;;;;;;;;;;;20.80;51.80;;;;;;5096898;28;988;-38
2022/01/27 12:47:06;;;;;;;;;;;20.80;51.90;;;;;;5096524;28;939;-40
2022/01/27 12:49:39;;;;;;;;;;;20.70;51.80;;;;;;5095607;28;1133;-39
2022/01/27 12:52:08;;;;;;;;;;;20.80;51.70;;;;;;5096880;28;1186;-39
2022/01/27 12:54:35;;;;;;;;;;;20.80;51.70;;;;;;5096276;28;968;-39
2022/01/27 12:57:03;;;;;;;;;;;20.80;51.70;;;;;;5097323;28;1893;-39
2022/01/27 12:59:31;;;;;;;;;;;20.80;51.70;;;;;;5095998;28;1058;-39
2022/01/27 13:01:58;;;;;;;;;;;20.80;51.60;;;;;;5096989;28;1014;-40
2022/01/27 13:04:25;;;;;;;;;;;20.70;51.50;;;;;;5096600;28;909;-39
2022/01/27 13:06:53;;;;;;;;;;;20.70;51.60;;;;;;5096279;28;929;-38
2022/01/27 13:09:20;;;;;;;;;;;20.70;51.50;;;;;;5096738;28;865;-39
2022/01/27 13:11:49;;;;;;;;;;;20.70;51.60;;;;;;5096506;28;1019;-39
2022/01/27 13:14:18;;;;;;;;;;;20.70;51.60;;;;;;5096573;28;925;-38
2022/01/27 13:16:49;;;;;;;;;;;20.70;51.60;;;;;;5096379;28;1984;-38
2022/01/27 13:19:23;;;;;;;;;;;20.70;51.60;;;;;;5096757;28;1019;-39
2022/01/27 13:21:59;;;;;;;;;;;20.70;51.50;;;;;;5096358;28;949;-39
2022/01/27 13:24:27;;;;;;;;;;;20.70;51.50;;;;;;5096635;28;978;-39
2022/01/27 13:27:03;;;;;;;;;;;20.70;51.60;;;;;;5096694;28;1046;-40
2022/01/27 13:29:38;;;;;;;;;;;20.70;51.70;;;;;;5097083;28;1042;-37
2022/01/27 13:32:06;;;;;;;;;;;20.70;51.70;;;;;;5096816;28;991;-38
2022/01/27 13:34:32;;;;;;;;;;;20.70;51.80;;;;;;5096804;28;1003;-40
2022/01/27 13:37:00;;;;;;;;;;;20.70;51.80;;;;;;5096184;28;1907;-39
2022/01/27 13:39:46;;;;;;;;;;;20.60;51.70;;;;;;5096767;28;951;-39
2022/01/27 13:42:12;;;;;;;;;;;20.70;51.70;;;;;;5096989;28;981;-39
2022/01/27 13:44:53;;;;;;;;;;;20.70;51.70;;;;;;5096588;28;1027;-39
2022/01/27 13:47:24;;;;;;;;;;;20.70;51.70;;;;;;5095951;28;1010;-40
2022/01/27 13:49:51;;;;;;;;;;;20.70;51.80;;;;;;5096025;28;1020;-38
2022/01/27 13:52:19;;;;;;;;;;;20.70;51.70;;;;;;5096321;28;1018;-39
2022/01/27 13:54:47;;;;;;;;;;;20.70;51.70;;;;;;5096163;28;1020;-40
2022/01/27 13:57:15;;;;;;;;;;;20.70;51.80;;;;;;5095970;28;1917;-40
2022/01/27 13:59:42;;;;;;;;;;;20.70;51.80;;;;;;5095913;28;965;-40
2022/01/27 14:02:18;;;;;;;;;;;20.60;51.70;;;;;;5096238;28;919;-37
2022/01/27 14:04:46;;;;;;;;;;;20.70;51.80;;;;;;5096140;28;1000;-40
2022/01/27 14:07:12;;;;;;;;;;;20.70;51.70;;;;;;5096610;28;995;-40
2022/01/27 14:09:42;;;;;;;;;;;20.70;51.70;;;;;;5095186;28;930;-39
2022/01/27 14:12:09;;;;;;;;;;;20.70;51.80;;;;;;5072289;28;1011;-38
2022/01/27 14:14:46;;;;;;;;;;;20.70;51.80;;;;;;5070070;28;992;-39
2022/01/27 14:17:24;;;;;;;;;;;20.70;51.70;;;;;;5072784;28;1985;-39
2022/01/27 14:19:51;;;;;;;;;;;20.60;52.90;;;;;;5096579;28;951;-39
2022/01/27 14:22:20;;;;;;;;;;;20.60;51.80;;;;;;5097221;28;944;-38
2022/01/27 14:25:01;;;;;;;;;;;20.60;51.80;;;;;;5096494;28;947;-38
2022/01/27 14:27:32;;;;;;;;;;;20.60;51.90;;;;;;5095340;28;1013;-38
2022/01/27 14:29:59;;;;;;;;;;;20.60;51.90;;;;;;5096317;28;988;-39
2022/01/27 14:32:27;;;;;;;;;;;20.60;51.90;;;;;;5095896;28;1041;-39
2022/01/27 14:34:53;;;;;;;;;;;20.60;51.80;;;;;;5095749;28;1019;-38
2022/01/27 14:37:20;;;;;;;;;;;20.60;51.90;;;;;;5095618;28;1902;-39
2022/01/27 14:39:47;;;;;;;;;;;20.60;51.90;;;;;;5095698;28;1003;-39
2022/01/27 14:42:20;;;;;;;;;;;20.60;51.90;;;;;;5095995;28;940;-39
2022/01/27 14:44:47;;;;;;;;;;;20.60;51.80;;;;;;5095796;28;1027;-40
2022/01/27 14:47:14;;;;;;;;;;;20.60;51.90;;;;;;5096233;28;1012;-42
2022/01/27 14:49:45;;;;;;;;;;;20.60;51.90;;;;;;5096192;28;1264;-37
2022/01/27 14:52:14;;;;;;;;;;;20.60;51.80;;;;;;5095755;28;1057;-39
2022/01/27 14:54:41;;;;;;;;;;;20.60;51.80;;;;;;5098145;28;968;-37
2022/01/27 14:57:10;;;;;;;;;;;20.60;51.70;;;;;;5098824;28;1973;-38
2022/01/27 14:59:39;;;;;;;;;;;20.60;51.80;;;;;;5099520;28;976;-39
2022/01/27 15:02:06;;;;;;;;;;;20.70;51.60;;;;;;5092701;28;1123;-39
2022/01/27 15:04:34;;;;;;;;;;;20.60;51.70;;;;;;5080643;28;959;-38
2022/01/27 15:07:03;;;;;;;;;;;20.60;51.70;;;;;;5080618;28;991;-41
2022/01/27 15:09:30;;;;;;;;;;;20.60;51.70;;;;;;5079597;28;958;-39
2022/01/27 15:11:57;;;;;;;;;;;20.60;51.70;;;;;;5078989;28;1482;-39
2022/01/27 15:19:53;;;;;;;;;;;20.60;51.70;;;;;;5077824;28;689;-38